createdAt,value
2022-11-07T00:00:22.662Z,100530.0
2022-11-07T00:02:19.367Z,100530.0
2022-11-07T00:04:19.164Z,100530.0
2022-11-07T00:06:18.847Z,100530.0
2022-11-07T00:08:18.497Z,100530.0
2022-11-07T00:10:18.417Z,100530.0
2022-11-07T00:12:18.140Z,100540.0
2022-11-07T00:14:18.204Z,100540.0
2022-11-07T00:16:17.399Z,100530.0
2022-11-07T00:18:17.434Z,100540.0
2022-11-07T00:26:16.134Z,100550.0
2022-11-07T00:28:15.765Z,100540.0
2022-11-07T00:30:15.602Z,100550.0
2022-11-07T00:32:15.213Z,100550.0
2022-11-07T00:34:15.409Z,100540.0
2022-11-07T00:36:17.093Z,100540.0
2022-11-07T00:38:14.399Z,100540.0
2022-11-07T00:40:14.482Z,100540.0
2022-11-07T00:42:14.090Z,100550.0
2022-11-07T00:44:14.371Z,100560.0
2022-11-07T00:46:15.715Z,100550.0
2022-11-07T00:48:13.542Z,100550.0
2022-11-07T00:50:12.945Z,100550.0
2022-11-07T00:52:12.473Z,100550.0
2022-11-07T00:54:12.141Z,100560.0
2022-11-07T00:56:14.430Z,100560.0
2022-11-07T00:58:14.262Z,100560.0
2022-11-07T01:00:12.097Z,100560.0
2022-11-07T01:02:11.310Z,100560.0
2022-11-07T01:04:21.794Z,100570.0
2022-11-07T01:06:11.040Z,100580.0
2022-11-07T01:08:10.216Z,100570.0
2022-11-07T01:10:09.928Z,100580.0
2022-11-07T01:12:09.811Z,100570.0
2022-11-07T01:14:10.796Z,100580.0
2022-11-07T01:16:09.853Z,100580.0
2022-11-07T01:18:09.659Z,100580.0
2022-11-07T01:20:09.590Z,100580.0
2022-11-07T01:24:10.441Z,100580.0
2022-11-07T01:28:09.377Z,100590.0
2022-11-07T01:30:07.876Z,100590.0
2022-11-07T01:32:06.770Z,100600.0
2022-11-07T01:34:06.511Z,100590.0
2022-11-07T01:36:10.020Z,100590.0
2022-11-07T01:38:06.055Z,100590.0
2022-11-07T01:40:06.357Z,100580.0
2022-11-07T01:42:05.696Z,100590.0
2022-11-07T01:44:24.982Z,100590.0
2022-11-07T01:46:05.185Z,100590.0
2022-11-07T01:48:05.525Z,100590.0
2022-11-07T01:50:06.520Z,100580.0
2022-11-07T01:54:05.394Z,100580.0
2022-11-07T01:58:06.069Z,100580.0
2022-11-07T02:00:07.300Z,100580.0
2022-11-07T02:02:04.398Z,100580.0
2022-11-07T02:04:03.796Z,100580.0
2022-11-07T02:06:08.107Z,100580.0
2022-11-07T02:10:03.004Z,100580.0
2022-11-07T02:12:01.859Z,100580.0
2022-11-07T02:14:01.166Z,100580.0
2022-11-07T02:16:02.992Z,100580.0
2022-11-07T02:18:01.440Z,100580.0
2022-11-07T02:20:01.037Z,100580.0
2022-11-07T02:22:10.555Z,100580.0
2022-11-07T02:26:00.090Z,100580.0
2022-11-07T02:28:03.314Z,100570.0
2022-11-07T02:30:03.114Z,100580.0
2022-11-07T02:31:59.583Z,100580.0
2022-11-07T02:33:58.515Z,100580.0
2022-11-07T02:36:00.622Z,100580.0
2022-11-07T02:37:58.226Z,100580.0
2022-11-07T02:39:59.320Z,100580.0
2022-11-07T02:44:01.925Z,100590.0
2022-11-07T02:45:59.567Z,100580.0
2022-11-07T02:47:56.545Z,100570.0
2022-11-07T02:49:56.300Z,100570.0
2022-11-07T02:51:56.122Z,100570.0
2022-11-07T02:53:56.177Z,100580.0
2022-11-07T02:57:55.932Z,100570.0
2022-11-07T02:59:56.592Z,100580.0
2022-11-07T03:01:54.931Z,100570.0
2022-11-07T03:03:54.427Z,100570.0
2022-11-07T03:05:54.215Z,100580.0
2022-11-07T03:07:53.914Z,100570.0
2022-11-07T03:09:53.744Z,100580.0
2022-11-07T03:11:53.429Z,100580.0
2022-11-07T03:13:54.076Z,100580.0
2022-11-07T03:15:55.071Z,100580.0
2022-11-07T03:17:52.801Z,100580.0
2022-11-07T03:19:52.272Z,100580.0
2022-11-07T03:21:52.377Z,100590.0
2022-11-07T03:23:52.034Z,100590.0
2022-11-07T03:25:51.832Z,100590.0
2022-11-07T03:27:51.678Z,100590.0
2022-11-07T03:29:51.348Z,100590.0
2022-11-07T03:31:50.784Z,100580.0
2022-11-07T03:33:50.596Z,100590.0
2022-11-07T03:35:50.209Z,100590.0
2022-11-07T03:37:50.241Z,100580.0
2022-11-07T03:39:49.672Z,100590.0
2022-11-07T03:41:49.369Z,100590.0
2022-11-07T03:43:49.073Z,100580.0
2022-11-07T03:45:49.078Z,100580.0
2022-11-07T03:47:48.609Z,100590.0
2022-11-07T03:49:48.465Z,100590.0
2022-11-07T03:51:48.103Z,100590.0
2022-11-07T03:53:47.924Z,100590.0
2022-11-07T03:55:47.619Z,100600.0
2022-11-07T03:57:47.560Z,100600.0
2022-11-07T03:59:48.105Z,100600.0
2022-11-07T04:01:47.301Z,100590.0
2022-11-07T04:03:47.052Z,100600.0
2022-11-07T04:05:46.301Z,100600.0
2022-11-07T04:07:46.005Z,100590.0
2022-11-07T04:09:45.863Z,100590.0
2022-11-07T04:11:55.490Z,100590.0
2022-11-07T04:15:55.589Z,100590.0
2022-11-07T04:17:44.951Z,100600.0
2022-11-07T04:19:44.950Z,100600.0
2022-11-07T04:21:44.268Z,100600.0
2022-11-07T04:23:43.958Z,100600.0
2022-11-07T04:25:53.484Z,100600.0
2022-11-07T04:27:43.468Z,100600.0
2022-11-07T04:29:43.247Z,100600.0
2022-11-07T04:31:43.139Z,100600.0
2022-11-07T04:33:43.094Z,100600.0
2022-11-07T04:35:42.942Z,100600.0
2022-11-07T04:39:41.879Z,100600.0
2022-11-07T04:41:41.664Z,100600.0
2022-11-07T04:43:41.342Z,100590.0
2022-11-07T04:45:41.177Z,100600.0
2022-11-07T04:47:41.016Z,100610.0
2022-11-07T04:49:40.550Z,100600.0
2022-11-07T04:51:41.388Z,100610.0
2022-11-07T04:53:40.068Z,100600.0
2022-11-07T04:55:39.954Z,100620.0
2022-11-07T04:57:39.611Z,100610.0
2022-11-07T04:59:39.453Z,100610.0
2022-11-07T05:01:39.074Z,100620.0
2022-11-07T05:05:39.045Z,100610.0
2022-11-07T05:07:39.111Z,100610.0
2022-11-07T05:09:38.757Z,100610.0
2022-11-07T05:13:37.676Z,100610.0
2022-11-07T05:15:38.179Z,100610.0
2022-11-07T05:17:37.241Z,100610.0
2022-11-07T05:19:36.850Z,100610.0
2022-11-07T05:21:36.724Z,100610.0
2022-11-07T05:23:36.569Z,100610.0
2022-11-07T05:25:36.147Z,100610.0
2022-11-07T05:27:36.309Z,100610.0
2022-11-07T05:29:36.276Z,100610.0
2022-11-07T05:31:36.239Z,100610.0
2022-11-07T05:35:35.303Z,100610.0
2022-11-07T05:37:34.751Z,100610.0
2022-11-07T05:39:34.769Z,100610.0
2022-11-07T05:41:34.985Z,100610.0
2022-11-07T05:43:34.684Z,100610.0
2022-11-07T05:45:36.714Z,100610.0
2022-11-07T05:47:33.917Z,100610.0
2022-11-07T05:49:33.435Z,100610.0
2022-11-07T05:51:33.475Z,100610.0
2022-11-07T05:53:34.365Z,100610.0
2022-11-07T05:55:32.640Z,100610.0
2022-11-07T05:57:32.390Z,100610.0
2022-11-07T05:59:32.239Z,100610.0
2022-11-07T06:01:32.016Z,100610.0
2022-11-07T06:03:32.204Z,100610.0
2022-11-07T06:05:31.836Z,100610.0
2022-11-07T06:07:34.354Z,100610.0
2022-11-07T06:09:30.898Z,100620.0
2022-11-07T06:11:31.680Z,100630.0
2022-11-07T06:13:30.636Z,100630.0
2022-11-07T06:15:32.593Z,100630.0
2022-11-07T06:17:30.269Z,100630.0
2022-11-07T06:19:30.093Z,100630.0
2022-11-07T06:21:30.513Z,100640.0
2022-11-07T06:23:29.842Z,100640.0
2022-11-07T06:25:29.611Z,100640.0
2022-11-07T06:27:29.907Z,100640.0
2022-11-07T06:29:28.608Z,100640.0
2022-11-07T06:31:28.333Z,100650.0
2022-11-07T06:33:29.161Z,100650.0
2022-11-07T06:35:28.092Z,100650.0
2022-11-07T06:37:27.769Z,100660.0
2022-11-07T06:39:27.463Z,100660.0
2022-11-07T06:41:27.156Z,100660.0
2022-11-07T06:43:27.021Z,100660.0
2022-11-07T06:47:26.522Z,100660.0
2022-11-07T06:49:26.084Z,100660.0
2022-11-07T06:51:25.885Z,100660.0
2022-11-07T06:53:26.585Z,100670.0
2022-11-07T06:55:26.133Z,100670.0
2022-11-07T06:57:25.751Z,100670.0
2022-11-07T06:59:25.539Z,100660.0
2022-11-07T07:01:25.066Z,100670.0
2022-11-07T07:05:24.307Z,100670.0
2022-11-07T07:07:23.912Z,100680.0
2022-11-07T07:09:23.611Z,100680.0
2022-11-07T07:11:23.362Z,100680.0
2022-11-07T07:13:23.130Z,100680.0
2022-11-07T07:15:23.346Z,100680.0
2022-11-07T07:17:22.575Z,100680.0
2022-11-07T07:19:22.381Z,100690.0
2022-11-07T07:21:22.077Z,100690.0
2022-11-07T07:23:22.087Z,100690.0
2022-11-07T07:25:21.659Z,100690.0
2022-11-07T07:27:21.382Z,100690.0
2022-11-07T07:29:21.374Z,100700.0
2022-11-07T07:31:23.986Z,100700.0
2022-11-07T07:33:21.071Z,100690.0
2022-11-07T07:35:21.185Z,100700.0
2022-11-07T07:37:20.109Z,100710.0
2022-11-07T07:39:19.816Z,100710.0
2022-11-07T07:41:20.104Z,100710.0
2022-11-07T07:45:19.293Z,100700.0
2022-11-07T07:49:18.701Z,100710.0
2022-11-07T07:51:18.502Z,100710.0
2022-11-07T07:53:18.560Z,100710.0
2022-11-07T07:55:18.434Z,100710.0
2022-11-07T07:57:17.639Z,100720.0
2022-11-07T07:59:17.468Z,100720.0
2022-11-07T08:01:17.314Z,100720.0
2022-11-07T08:03:17.646Z,100720.0
2022-11-07T08:07:16.983Z,100720.0
2022-11-07T08:09:16.453Z,100720.0
2022-11-07T08:11:16.226Z,100720.0
2022-11-07T08:13:15.918Z,100720.0
2022-11-07T08:15:16.936Z,100730.0
2022-11-07T08:17:15.193Z,100730.0
2022-11-07T08:21:14.935Z,100730.0
2022-11-07T08:23:16.656Z,100740.0
2022-11-07T08:25:14.297Z,100730.0
2022-11-07T08:27:13.969Z,100740.0
2022-11-07T08:29:13.776Z,100740.0
2022-11-07T08:31:13.539Z,100750.0
2022-11-07T08:33:13.603Z,100740.0
2022-11-07T08:35:13.340Z,100750.0
2022-11-07T08:39:12.786Z,100750.0
2022-11-07T08:41:13.274Z,100750.0
2022-11-07T08:43:16.309Z,100750.0
2022-11-07T08:47:11.892Z,100760.0
2022-11-07T08:49:12.488Z,100750.0
2022-11-07T08:51:11.449Z,100760.0
2022-11-07T08:53:11.480Z,100760.0
2022-11-07T08:55:10.880Z,100760.0
2022-11-07T08:57:10.792Z,100760.0
2022-11-07T08:59:10.711Z,100750.0
2022-11-07T09:03:43.420Z,100760.0
2022-11-07T09:05:09.782Z,100760.0
2022-11-07T09:07:09.541Z,100760.0
2022-11-07T09:09:12.747Z,100770.0
2022-11-07T09:11:09.397Z,100760.0
2022-11-07T09:13:08.923Z,100760.0
2022-11-07T09:15:09.633Z,100750.0
2022-11-07T09:17:08.352Z,100760.0
2022-11-07T09:19:08.323Z,100760.0
2022-11-07T09:21:08.369Z,100760.0
2022-11-07T09:23:08.491Z,100750.0
2022-11-07T09:25:08.990Z,100750.0
2022-11-07T09:27:07.491Z,100760.0
2022-11-07T09:29:06.979Z,100750.0
2022-11-07T09:31:06.816Z,100760.0
2022-11-07T09:33:06.998Z,100750.0
2022-11-07T09:35:07.882Z,100750.0
2022-11-07T09:37:06.161Z,100760.0
2022-11-07T09:39:06.317Z,100750.0
2022-11-07T09:41:10.030Z,100760.0
2022-11-07T09:43:22.939Z,100760.0
2022-11-07T09:45:12.252Z,100760.0
2022-11-07T09:47:13.551Z,100760.0
2022-11-07T09:49:14.096Z,100760.0
2022-11-07T09:51:10.066Z,100770.0
2022-11-07T09:53:11.460Z,100770.0
2022-11-07T09:55:13.925Z,100770.0
2022-11-07T09:57:04.303Z,100780.0
2022-11-07T09:59:12.819Z,100780.0
2022-11-07T10:01:06.399Z,100770.0
2022-11-07T10:03:03.875Z,100780.0
2022-11-07T10:05:04.327Z,100770.0
2022-11-07T10:07:14.128Z,100770.0
2022-11-07T10:09:13.727Z,100770.0
2022-11-07T10:11:11.110Z,100780.0
2022-11-07T10:13:17.018Z,100770.0
2022-11-07T10:15:11.730Z,100770.0
2022-11-07T10:17:12.583Z,100770.0
2022-11-07T10:19:11.947Z,100770.0
2022-11-07T10:21:36.673Z,100770.0
2022-11-07T10:27:01.648Z,100770.0
2022-11-07T10:29:10.029Z,100770.0
2022-11-07T10:31:06.172Z,100770.0
2022-11-07T10:33:06.851Z,100770.0
2022-11-07T10:35:14.365Z,100770.0
2022-11-07T10:37:00.513Z,100780.0
2022-11-07T10:39:00.933Z,100770.0
2022-11-07T10:43:04.728Z,100770.0
2022-11-07T10:49:01.158Z,100770.0
2022-11-07T10:50:59.599Z,100770.0
2022-11-07T10:53:00.495Z,100770.0
2022-11-07T10:55:07.481Z,100760.0
2022-11-07T10:57:03.573Z,100750.0
2022-11-07T10:58:58.480Z,100750.0
2022-11-07T11:01:00.812Z,100740.0
2022-11-07T11:02:58.890Z,100740.0
2022-11-07T11:05:01.447Z,100740.0
2022-11-07T11:07:00.768Z,100740.0
2022-11-07T11:08:58.354Z,100740.0
2022-11-07T11:10:57.490Z,100730.0
2022-11-07T11:12:57.146Z,100730.0
2022-11-07T11:15:09.854Z,100730.0
2022-11-07T11:16:57.154Z,100740.0
2022-11-07T11:18:58.813Z,100730.0
2022-11-07T11:21:00.527Z,100730.0
2022-11-07T11:22:56.592Z,100730.0
2022-11-07T11:25:00.816Z,100730.0
2022-11-07T11:26:58.530Z,100730.0
2022-11-07T11:29:01.025Z,100730.0
2022-11-07T11:31:00.627Z,100720.0
2022-11-07T11:37:00.981Z,100730.0
2022-11-07T11:38:55.543Z,100730.0
2022-11-07T11:43:01.787Z,100730.0
2022-11-07T11:47:01.561Z,100730.0
2022-11-07T11:48:59.945Z,100730.0
2022-11-07T11:50:57.598Z,100720.0
2022-11-07T11:52:53.804Z,100720.0
2022-11-07T11:54:56.026Z,100730.0
2022-11-07T11:56:57.086Z,100730.0
2022-11-07T11:59:06.252Z,100740.0
2022-11-07T12:01:02.690Z,100730.0
2022-11-07T12:05:05.913Z,100720.0
2022-11-07T12:07:00.041Z,100720.0
2022-11-07T12:09:17.068Z,100720.0
2022-11-07T12:11:00.671Z,100720.0
2022-11-07T12:13:06.150Z,100720.0
2022-11-07T12:15:02.320Z,100720.0
2022-11-07T12:16:57.678Z,100720.0
2022-11-07T12:21:05.027Z,100720.0
2022-11-07T12:23:03.080Z,100720.0
2022-11-07T12:24:57.060Z,100720.0
2022-11-07T12:26:58.132Z,100720.0
2022-11-07T12:28:59.927Z,100720.0
2022-11-07T12:30:59.979Z,100720.0
2022-11-07T12:33:03.730Z,100720.0
2022-11-07T12:35:04.960Z,100720.0
2022-11-07T12:37:03.739Z,100720.0
2022-11-07T12:39:01.778Z,100710.0
2022-11-07T12:40:59.195Z,100710.0
2022-11-07T12:45:02.005Z,100700.0
2022-11-07T12:46:53.214Z,100700.0
2022-11-07T12:49:04.589Z,100700.0
2022-11-07T12:50:57.773Z,100710.0
2022-11-07T12:53:01.894Z,100710.0
2022-11-07T12:54:52.337Z,100710.0
2022-11-07T12:56:50.560Z,100700.0
2022-11-07T12:58:47.676Z,100690.0
2022-11-07T13:00:49.841Z,100700.0
2022-11-07T13:04:54.030Z,100700.0
2022-11-07T13:06:54.945Z,100700.0
2022-11-07T13:08:57.338Z,100700.0
2022-11-07T13:10:55.754Z,100700.0
2022-11-07T13:12:57.538Z,100690.0
2022-11-07T13:14:47.239Z,100690.0
2022-11-07T13:16:51.199Z,100690.0
2022-11-07T13:18:46.134Z,100690.0
2022-11-07T13:22:47.298Z,100690.0
2022-11-07T13:24:51.960Z,100680.0
2022-11-07T13:26:47.284Z,100680.0
2022-11-07T13:28:55.458Z,100690.0
2022-11-07T13:30:54.839Z,100680.0
2022-11-07T13:34:48.730Z,100680.0
2022-11-07T13:36:46.538Z,100680.0
2022-11-07T13:38:49.284Z,100680.0
2022-11-07T13:40:48.051Z,100680.0
2022-11-07T13:44:52.946Z,100690.0
2022-11-07T13:46:48.441Z,100680.0
2022-11-07T13:48:49.214Z,100680.0
2022-11-07T13:50:51.116Z,100680.0
2022-11-07T13:52:50.914Z,100670.0
2022-11-07T13:54:51.550Z,100670.0
2022-11-07T13:56:48.807Z,100670.0
2022-11-07T13:58:43.861Z,100670.0
2022-11-07T14:00:42.928Z,100680.0
2022-11-07T14:05:10.179Z,100680.0
2022-11-07T14:06:43.588Z,100670.0
2022-11-07T14:08:46.272Z,100680.0
2022-11-07T14:10:45.424Z,100680.0
2022-11-07T14:12:43.070Z,100680.0
2022-11-07T14:14:42.356Z,100680.0
2022-11-07T14:18:46.243Z,100670.0
2022-11-07T14:22:48.416Z,100680.0
2022-11-07T14:24:50.655Z,100670.0
2022-11-07T14:26:43.943Z,100680.0
2022-11-07T14:32:45.449Z,100670.0
2022-11-07T14:34:43.873Z,100670.0
2022-11-07T14:36:46.870Z,100670.0
2022-11-07T14:38:46.371Z,100670.0
2022-11-07T14:42:41.477Z,100670.0
2022-11-07T14:44:53.864Z,100680.0
2022-11-07T14:46:39.313Z,100680.0
2022-11-07T14:48:41.124Z,100680.0
2022-11-07T14:50:39.822Z,100680.0
2022-11-07T14:52:42.311Z,100690.0
2022-11-07T14:54:41.677Z,100690.0
2022-11-07T14:56:42.396Z,100690.0
2022-11-07T14:58:38.227Z,100680.0
2022-11-07T15:02:37.886Z,100680.0
2022-11-07T15:04:40.989Z,100680.0
2022-11-07T15:06:43.126Z,100690.0
2022-11-07T15:10:38.879Z,100690.0
2022-11-07T15:12:48.577Z,100690.0
2022-11-07T15:14:36.707Z,100690.0
2022-11-07T15:16:47.568Z,100690.0
2022-11-07T15:18:38.900Z,100690.0
2022-11-07T15:20:37.633Z,100690.0
2022-11-07T15:22:37.935Z,100690.0
2022-11-07T15:24:41.735Z,100690.0
2022-11-07T15:26:35.747Z,100690.0
2022-11-07T15:30:35.435Z,100680.0
2022-11-07T15:34:58.791Z,100690.0
2022-11-07T15:36:39.983Z,100690.0
2022-11-07T15:38:34.712Z,100680.0
2022-11-07T15:40:34.729Z,100690.0
2022-11-07T15:42:33.998Z,100690.0
2022-11-07T15:44:33.868Z,100690.0
2022-11-07T15:46:36.935Z,100690.0
2022-11-07T15:48:40.770Z,100690.0
2022-11-07T15:50:40.241Z,100700.0
2022-11-07T15:52:33.047Z,100690.0
2022-11-07T15:54:32.881Z,100690.0
2022-11-07T15:56:32.792Z,100690.0
2022-11-07T15:58:32.547Z,100690.0
2022-11-07T16:00:32.324Z,100690.0
2022-11-07T16:04:35.263Z,100700.0
2022-11-07T16:06:32.099Z,100700.0
2022-11-07T16:08:33.671Z,100700.0
2022-11-07T16:10:31.512Z,100700.0
2022-11-07T16:12:31.351Z,100700.0
2022-11-07T16:16:33.580Z,100700.0
2022-11-07T16:18:35.844Z,100700.0
2022-11-07T16:20:32.589Z,100700.0
2022-11-07T16:22:30.638Z,100700.0
2022-11-07T16:24:30.730Z,100700.0
2022-11-07T16:26:30.236Z,100700.0
2022-11-07T16:28:31.645Z,100700.0
2022-11-07T16:30:29.678Z,100700.0
2022-11-07T16:32:29.295Z,100690.0
2022-11-07T16:34:29.165Z,100700.0
2022-11-07T16:36:31.070Z,100710.0
2022-11-07T16:38:34.870Z,100710.0
2022-11-07T16:40:28.799Z,100710.0
2022-11-07T16:42:28.574Z,100710.0
2022-11-07T16:44:28.225Z,100720.0
2022-11-07T16:48:29.075Z,100720.0
2022-11-07T16:52:28.133Z,100710.0
2022-11-07T16:54:27.239Z,100700.0
2022-11-07T16:56:29.952Z,100710.0
2022-11-07T16:58:29.512Z,100710.0
2022-11-07T17:00:26.861Z,100710.0
2022-11-07T17:02:27.315Z,100710.0
2022-11-07T17:04:26.665Z,100720.0
2022-11-07T17:06:28.815Z,100720.0
2022-11-07T17:08:31.730Z,100730.0
2022-11-07T17:10:26.617Z,100720.0
2022-11-07T17:12:26.952Z,100730.0
2022-11-07T17:14:25.299Z,100730.0
2022-11-07T17:16:28.917Z,100730.0
2022-11-07T17:18:26.539Z,100730.0
2022-11-07T17:20:49.788Z,100730.0
2022-11-07T17:22:24.522Z,100730.0
2022-11-07T17:24:24.397Z,100740.0
2022-11-07T17:26:26.088Z,100730.0
2022-11-07T17:28:23.916Z,100730.0
2022-11-07T17:30:23.807Z,100730.0
2022-11-07T17:34:23.305Z,100730.0
2022-11-07T17:38:24.436Z,100720.0
2022-11-07T17:40:26.386Z,100720.0
2022-11-07T17:42:22.727Z,100720.0
2022-11-07T17:44:22.586Z,100730.0
2022-11-07T17:46:25.212Z,100730.0
2022-11-07T17:48:22.265Z,100730.0
2022-11-07T17:50:22.668Z,100730.0
2022-11-07T17:52:21.672Z,100730.0
2022-11-07T17:56:23.193Z,100730.0
2022-11-07T17:58:20.784Z,100730.0
2022-11-07T18:00:23.380Z,100730.0
2022-11-07T18:02:20.572Z,100730.0
2022-11-07T18:04:20.235Z,100730.0
2022-11-07T18:10:19.718Z,100730.0
2022-11-07T18:12:19.449Z,100730.0
2022-11-07T18:14:19.337Z,100730.0
2022-11-07T18:16:23.012Z,100730.0
2022-11-07T18:18:19.165Z,100730.0
2022-11-07T18:22:18.403Z,100730.0
2022-11-07T18:24:18.429Z,100730.0
2022-11-07T18:26:21.710Z,100730.0
2022-11-07T18:28:18.877Z,100730.0
2022-11-07T18:32:17.350Z,100730.0
2022-11-07T18:34:17.334Z,100720.0
2022-11-07T18:36:20.267Z,100730.0
2022-11-07T18:38:17.113Z,100720.0
2022-11-07T18:40:16.602Z,100720.0
2022-11-07T18:42:16.315Z,100720.0
2022-11-07T18:44:16.365Z,100720.0
2022-11-07T18:46:18.612Z,100720.0
2022-11-07T18:48:16.697Z,100730.0
2022-11-07T18:52:15.580Z,100730.0
2022-11-07T18:54:15.166Z,100730.0
2022-11-07T18:56:15.828Z,100740.0
2022-11-07T18:58:15.065Z,100730.0
2022-11-07T19:00:15.728Z,100740.0
2022-11-07T19:02:14.722Z,100740.0
2022-11-07T19:06:16.572Z,100740.0
2022-11-07T19:08:14.688Z,100750.0
2022-11-07T19:10:14.934Z,100750.0
2022-11-07T19:12:13.819Z,100750.0
2022-11-07T19:14:13.145Z,100750.0
2022-11-07T19:16:15.299Z,100750.0
2022-11-07T19:18:12.934Z,100760.0
2022-11-07T19:20:12.498Z,100750.0
2022-11-07T19:22:12.829Z,100750.0
2022-11-07T19:24:12.244Z,100750.0
2022-11-07T19:28:11.746Z,100750.0
2022-11-07T19:30:13.225Z,100760.0
2022-11-07T19:32:11.620Z,100760.0
2022-11-07T19:34:11.084Z,100750.0
2022-11-07T19:40:10.829Z,100750.0
2022-11-07T19:42:10.413Z,100750.0
2022-11-07T19:44:10.095Z,100750.0
2022-11-07T19:46:13.752Z,100750.0
2022-11-07T19:48:10.899Z,100750.0
2022-11-07T19:50:09.927Z,100750.0
2022-11-07T19:52:09.800Z,100750.0
2022-11-07T19:54:09.509Z,100740.0
2022-11-07T19:56:11.002Z,100750.0
2022-11-07T19:58:08.466Z,100740.0
2022-11-07T20:00:10.207Z,100740.0
2022-11-07T20:02:31.842Z,100740.0
2022-11-07T20:04:07.927Z,100740.0
2022-11-07T20:06:08.932Z,100740.0
2022-11-07T20:08:07.315Z,100740.0
2022-11-07T20:12:07.433Z,100750.0
2022-11-07T20:14:06.753Z,100750.0
2022-11-07T20:16:07.707Z,100750.0
2022-11-07T20:18:06.250Z,100750.0
2022-11-07T20:20:13.198Z,100760.0
2022-11-07T20:22:06.184Z,100760.0
2022-11-07T20:24:08.095Z,100760.0
2022-11-07T20:26:06.088Z,100770.0
2022-11-07T20:28:05.238Z,100770.0
2022-11-07T20:30:06.059Z,100770.0
2022-11-07T20:32:04.836Z,100760.0
2022-11-07T20:34:06.045Z,100760.0
2022-11-07T20:38:04.798Z,100770.0
2022-11-07T20:40:05.137Z,100770.0
2022-11-07T20:42:03.498Z,100770.0
2022-11-07T20:44:05.851Z,100770.0
2022-11-07T20:48:03.058Z,100770.0
2022-11-07T20:50:02.498Z,100760.0
2022-11-07T20:52:02.051Z,100760.0
2022-11-07T20:56:04.402Z,100760.0
2022-11-07T20:58:03.161Z,100760.0
2022-11-07T21:00:02.079Z,100760.0
2022-11-07T21:02:03.529Z,100760.0
2022-11-07T21:04:01.103Z,100750.0
2022-11-07T21:08:00.202Z,100750.0
2022-11-07T21:09:59.854Z,100750.0
2022-11-07T21:11:59.782Z,100750.0
2022-11-07T21:14:00.033Z,100760.0
2022-11-07T21:15:59.759Z,100750.0
2022-11-07T21:17:58.912Z,100760.0
2022-11-07T21:19:58.733Z,100760.0
2022-11-07T21:21:58.347Z,100760.0
2022-11-07T21:23:59.006Z,100760.0
2022-11-07T21:25:57.937Z,100760.0
2022-11-07T21:27:57.945Z,100760.0
2022-11-07T21:29:57.444Z,100760.0
2022-11-07T21:31:57.518Z,100750.0
2022-11-07T21:33:57.813Z,100760.0
2022-11-07T21:35:57.048Z,100750.0
2022-11-07T21:39:56.679Z,100750.0
2022-11-07T21:41:56.770Z,100750.0
2022-11-07T21:43:57.452Z,100750.0
2022-11-07T21:45:55.456Z,100750.0
2022-11-07T21:47:55.250Z,100740.0
2022-11-07T21:49:55.214Z,100750.0
2022-11-07T21:53:55.612Z,100740.0
2022-11-07T21:55:58.404Z,100740.0
2022-11-07T21:57:54.368Z,100740.0
2022-11-07T21:59:53.832Z,100730.0
2022-11-07T22:04:07.903Z,100730.0
2022-11-07T22:05:53.110Z,100730.0
2022-11-07T22:07:52.901Z,100720.0
2022-11-07T22:11:52.880Z,100720.0
2022-11-07T22:13:52.670Z,100720.0
2022-11-07T22:15:52.402Z,100720.0
2022-11-07T22:17:51.598Z,100710.0
2022-11-07T22:19:51.219Z,100710.0
2022-11-07T22:21:51.006Z,100710.0
2022-11-07T22:23:50.737Z,100720.0
2022-11-07T22:25:50.397Z,100710.0
2022-11-07T22:27:50.315Z,100710.0
2022-11-07T22:29:49.868Z,100710.0
2022-11-07T22:31:49.723Z,100700.0
2022-11-07T22:33:51.227Z,100700.0
2022-11-07T22:35:49.926Z,100700.0
2022-11-07T22:37:48.844Z,100700.0
2022-11-07T22:39:48.734Z,100700.0
2022-11-07T22:43:49.055Z,100680.0
2022-11-07T22:45:48.607Z,100690.0
2022-11-07T22:47:47.842Z,100690.0
2022-11-07T22:49:47.309Z,100690.0
2022-11-07T22:51:47.200Z,100690.0
2022-11-07T22:53:47.019Z,100690.0
2022-11-07T22:55:46.575Z,100690.0
2022-11-07T22:57:46.389Z,100690.0
2022-11-07T22:59:45.942Z,100690.0
2022-11-07T23:01:45.790Z,100690.0
2022-11-07T23:03:46.358Z,100690.0
2022-11-07T23:05:45.487Z,100690.0
2022-11-07T23:07:49.263Z,100690.0
2022-11-07T23:09:44.567Z,100680.0
2022-11-07T23:11:46.335Z,100690.0
2022-11-07T23:13:45.078Z,100680.0
2022-11-07T23:15:44.128Z,100680.0
2022-11-07T23:17:44.045Z,100680.0
2022-11-07T23:19:43.744Z,100680.0
2022-11-07T23:23:43.383Z,100670.0
2022-11-07T23:27:42.158Z,100670.0
2022-11-07T23:31:44.535Z,100670.0
2022-11-07T23:35:41.016Z,100670.0
2022-11-07T23:37:40.810Z,100670.0
2022-11-07T23:39:40.931Z,100670.0
2022-11-07T23:41:40.600Z,100670.0
2022-11-07T23:43:40.802Z,100670.0
2022-11-07T23:45:49.701Z,100670.0
2022-11-07T23:47:49.626Z,100660.0
2022-11-07T23:49:49.675Z,100660.0
2022-11-07T23:51:39.534Z,100660.0
2022-11-07T23:53:48.935Z,100660.0
2022-11-07T23:55:39.656Z,100650.0
2022-11-07T23:57:48.068Z,100650.0
2022-11-07T23:59:47.587Z,100650.0
